sensor_id;sensor_type;location;lat;lon;timestamp;pressure;altitude;pressure_sealevel;temperature;humidity
15263;BME280;7733;51.554;13.590;2023-05-10T00:02:07;100056.22;;;14.87;51.16
15263;BME280;7733;51.554;13.590;2023-05-10T00:04:33;100058.72;;;14.41;52.13
15263;BME280;7733;51.554;13.590;2023-05-10T00:06:59;100056.34;;;15.08;50.43
15263;BME280;7733;51.554;13.590;2023-05-10T00:09:25;100049.41;;;14.82;51.38
15263;BME280;7733;51.554;13.590;2023-05-10T00:11:50;100047.75;;;15.03;50.79
15263;BME280;7733;51.554;13.590;2023-05-10T00:14:17;100051.78;;;15.11;50.58
15263;BME280;7733;51.554;13.590;2023-05-10T00:16:42;100044.84;;;15.09;50.37
15263;BME280;7733;51.554;13.590;2023-05-10T00:19:08;100047.75;;;15.01;50.68
15263;BME280;7733;51.554;13.590;2023-05-10T00:21:34;100037.44;;;14.72;51.32
15263;BME280;7733;51.554;13.590;2023-05-10T00:24:00;100050.69;;;14.70;51.59
15263;BME280;7733;51.554;13.590;2023-05-10T00:26:26;100041.06;;;14.69;51.09
15263;BME280;7733;51.554;13.590;2023-05-10T00:28:51;100044.13;;;14.57;51.54
15263;BME280;7733;51.554;13.590;2023-05-10T00:31:17;100040.38;;;14.64;51.21
15263;BME280;7733;51.554;13.590;2023-05-10T00:33:43;100036.69;;;14.68;51.21
15263;BME280;7733;51.554;13.590;2023-05-10T00:36:08;100039.91;;;14.76;50.97
15263;BME280;7733;51.554;13.590;2023-05-10T00:38:34;100041.84;;;14.95;50.47
15263;BME280;7733;51.554;13.590;2023-05-10T00:41:00;100033.69;;;15.01;50.31
15263;BME280;7733;51.554;13.590;2023-05-10T00:43:26;100032.16;;;14.72;51.22
15263;BME280;7733;51.554;13.590;2023-05-10T00:45:52;100032.59;;;14.59;51.33
15263;BME280;7733;51.554;13.590;2023-05-10T00:48:19;100036.47;;;14.74;51.08
15263;BME280;7733;51.554;13.590;2023-05-10T00:50:45;100034.72;;;14.50;51.60
15263;BME280;7733;51.554;13.590;2023-05-10T00:53:12;100035.41;;;14.55;51.44
15263;BME280;7733;51.554;13.590;2023-05-10T00:55:37;100027.53;;;14.53;51.63
15263;BME280;7733;51.554;13.590;2023-05-10T00:58:04;100024.44;;;14.41;52.16
15263;BME280;7733;51.554;13.590;2023-05-10T01:00:32;100024.66;;;14.35;52.18
15263;BME280;7733;51.554;13.590;2023-05-10T01:02:58;100023.19;;;14.52;51.56
15263;BME280;7733;51.554;13.590;2023-05-10T01:05:25;100017.19;;;14.72;50.74
15263;BME280;7733;51.554;13.590;2023-05-10T01:07:52;100013.66;;;14.48;51.43
15263;BME280;7733;51.554;13.590;2023-05-10T01:10:18;100017.56;;;14.61;51.15
15263;BME280;7733;51.554;13.590;2023-05-10T01:12:46;100014.56;;;14.22;52.20
15263;BME280;7733;51.554;13.590;2023-05-10T01:15:13;100015.38;;;14.24;52.17
15263;BME280;7733;51.554;13.590;2023-05-10T01:17:43;100020.47;;;14.29;52.09
15263;BME280;7733;51.554;13.590;2023-05-10T01:20:11;100012.44;;;13.81;53.56
15263;BME280;7733;51.554;13.590;2023-05-10T01:34:21;100010.03;;;14.26;51.95
15263;BME280;7733;51.554;13.590;2023-05-10T01:37:14;99999.59;;;14.23;52.23
15263;BME280;7733;51.554;13.590;2023-05-10T01:39:51;100006.63;;;14.22;51.98
15263;BME280;7733;51.554;13.590;2023-05-10T01:42:23;99997.34;;;14.36;51.61
15263;BME280;7733;51.554;13.590;2023-05-10T01:47:37;99998.56;;;14.02;52.69
15263;BME280;7733;51.554;13.590;2023-05-10T01:50:08;99998.41;;;14.07;52.34
15263;BME280;7733;51.554;13.590;2023-05-10T01:52:42;100000.06;;;14.09;52.51
15263;BME280;7733;51.554;13.590;2023-05-10T01:55:15;99998.41;;;14.07;52.23
15263;BME280;7733;51.554;13.590;2023-05-10T01:57:46;100002.25;;;13.70;53.57
15263;BME280;7733;51.554;13.590;2023-05-10T02:00:15;99998.13;;;13.61;53.75
15263;BME280;7733;51.554;13.590;2023-05-10T02:02:46;99993.38;;;13.46;54.10
15263;BME280;7733;51.554;13.590;2023-05-10T02:05:15;100001.31;;;13.73;53.80
15263;BME280;7733;51.554;13.590;2023-05-10T02:07:43;99989.03;;;13.72;53.64
15263;BME280;7733;51.554;13.590;2023-05-10T02:10:10;99994.81;;;13.56;53.79
15263;BME280;7733;51.554;13.590;2023-05-10T02:12:43;99998.66;;;13.73;53.54
15263;BME280;7733;51.554;13.590;2023-05-10T02:15:12;99997.34;;;13.86;53.17
15263;BME280;7733;51.554;13.590;2023-05-10T02:17:42;99990.75;;;13.73;53.56
15263;BME280;7733;51.554;13.590;2023-05-10T02:20:10;99991.34;;;13.54;53.63
15263;BME280;7733;51.554;13.590;2023-05-10T02:22:38;100001.06;;;13.26;54.94
15263;BME280;7733;51.554;13.590;2023-05-10T02:25:08;99998.19;;;13.33;54.86
15263;BME280;7733;51.554;13.590;2023-05-10T02:27:37;99994.81;;;13.56;53.79
15263;BME280;7733;51.554;13.590;2023-05-10T02:30:05;99995.34;;;13.39;54.60
15263;BME280;7733;51.554;13.590;2023-05-10T02:32:33;99994.31;;;13.45;54.30
15263;BME280;7733;51.554;13.590;2023-05-10T02:35:02;99993.88;;;13.57;53.80
15263;BME280;7733;51.554;13.590;2023-05-10T02:37:30;99985.69;;;13.66;53.54
15263;BME280;7733;51.554;13.590;2023-05-10T02:39:57;99988.28;;;13.40;54.63
15263;BME280;7733;51.554;13.590;2023-05-10T02:42:29;99982.13;;;13.41;54.18
15263;BME280;7733;51.554;13.590;2023-05-10T02:45:01;99975.88;;;13.45;54.04
15263;BME280;7733;51.554;13.590;2023-05-10T02:47:28;99980.31;;;13.43;54.22
15263;BME280;7733;51.554;13.590;2023-05-10T02:49:55;99979.41;;;13.44;54.36
15263;BME280;7733;51.554;13.590;2023-05-10T02:52:30;99981.75;;;13.25;54.86
15263;BME280;7733;51.554;13.590;2023-05-10T02:55:04;99981.19;;;13.14;55.42
15263;BME280;7733;51.554;13.590;2023-05-10T02:57:40;99979.41;;;13.44;54.32
15263;BME280;7733;51.554;13.590;2023-05-10T03:00:07;99982.13;;;13.41;54.29
15263;BME280;7733;51.554;13.590;2023-05-10T03:02:33;99973.44;;;13.09;55.21
15263;BME280;7733;51.554;13.590;2023-05-10T03:04:58;99973.50;;;13.36;54.03
15263;BME280;7733;51.554;13.590;2023-05-10T03:07:24;99974.56;;;13.01;55.29
15263;BME280;7733;51.554;13.590;2023-05-10T03:09:50;99978.06;;;13.31;53.86
15263;BME280;7733;51.554;13.590;2023-05-10T03:13:16;99980.41;;;13.40;54.37
15263;BME280;7733;51.554;13.590;2023-05-10T03:16:05;99984.50;;;13.22;54.70
15263;BME280;7733;51.554;13.590;2023-05-10T03:21:32;99978.91;;;13.03;55.39
15263;BME280;7733;51.554;13.590;2023-05-10T03:24:02;99990.16;;;12.79;55.87
15263;BME280;7733;51.554;13.590;2023-05-10T03:26:31;99979.88;;;12.99;55.24
15263;BME280;7733;51.554;13.590;2023-05-10T03:28:58;99993.25;;;13.23;54.45
15263;BME280;7733;51.554;13.590;2023-05-10T03:31:25;99980.44;;;13.10;54.82
15263;BME280;7733;51.554;13.590;2023-05-10T03:33:52;99985.59;;;12.86;55.62
15263;BME280;7733;51.554;13.590;2023-05-10T03:36:19;99991.28;;;12.70;56.34
15263;BME280;7733;51.554;13.590;2023-05-10T03:38:45;99992.28;;;12.66;56.57
15263;BME280;7733;51.554;13.590;2023-05-10T03:41:11;99989.22;;;12.80;56.39
15263;BME280;7733;51.554;13.590;2023-05-10T03:43:37;99989.28;;;12.49;56.90
15263;BME280;7733;51.554;13.590;2023-05-10T03:46:05;99984.06;;;12.77;56.60
15263;BME280;7733;51.554;13.590;2023-05-10T03:48:34;99991.50;;;12.92;56.10
15263;BME280;7733;51.554;13.590;2023-05-10T03:51:00;99989.84;;;12.59;57.25
15263;BME280;7733;51.554;13.590;2023-05-10T03:53:26;99981.09;;;12.89;56.01
15263;BME280;7733;51.554;13.590;2023-05-10T03:55:52;99983.06;;;12.81;56.59
15263;BME280;7733;51.554;13.590;2023-05-10T03:58:18;99995.94;;;12.62;57.45
15263;BME280;7733;51.554;13.590;2023-05-10T04:00:44;99985.94;;;13.03;55.89
15263;BME280;7733;51.554;13.590;2023-05-10T04:03:12;99991.25;;;13.01;56.12
15263;BME280;7733;51.554;13.590;2023-05-10T04:05:38;99983.63;;;13.22;55.41
15263;BME280;7733;51.554;13.590;2023-05-10T04:08:05;99991.97;;;13.06;55.84
15263;BME280;7733;51.554;13.590;2023-05-10T04:10:31;99998.50;;;12.93;56.22
15263;BME280;7733;51.554;13.590;2023-05-10T04:12:57;99992.13;;;13.02;56.39
15263;BME280;7733;51.554;13.590;2023-05-10T04:15:23;99988.63;;;13.01;56.26
15263;BME280;7733;51.554;13.590;2023-05-10T04:17:49;99991.38;;;13.26;55.49
15263;BME280;7733;51.554;13.590;2023-05-10T04:20:15;99993.03;;;12.99;56.62
15263;BME280;7733;51.554;13.590;2023-05-10T04:22:41;99988.22;;;12.86;57.34
15263;BME280;7733;51.554;13.590;2023-05-10T04:25:08;99979.63;;;12.79;57.89
15263;BME280;7733;51.554;13.590;2023-05-10T04:27:34;99982.13;;;12.84;57.74
15263;BME280;7733;51.554;13.590;2023-05-10T04:29:59;99980.63;;;12.75;58.25
15263;BME280;7733;51.554;13.590;2023-05-10T04:32:25;99981.53;;;12.74;58.56
15263;BME280;7733;51.554;13.590;2023-05-10T04:34:51;99975.22;;;12.79;58.53
15263;BME280;7733;51.554;13.590;2023-05-10T04:37:17;99970.75;;;13.11;57.53
15263;BME280;7733;51.554;13.590;2023-05-10T04:39:43;99983.34;;;13.01;58.16
15263;BME280;7733;51.554;13.590;2023-05-10T04:42:09;99979.69;;;13.35;56.93
15263;BME280;7733;51.554;13.590;2023-05-10T04:44:35;99975.38;;;13.32;57.32
15263;BME280;7733;51.554;13.590;2023-05-10T04:47:01;99974.47;;;13.33;57.63
15263;BME280;7733;51.554;13.590;2023-05-10T04:49:29;99967.03;;;13.18;58.08
15263;BME280;7733;51.554;13.590;2023-05-10T04:51:55;99970.91;;;13.34;57.86
15263;BME280;7733;51.554;13.590;2023-05-10T04:54:21;99968.94;;;13.41;58.01
15263;BME280;7733;51.554;13.590;2023-05-10T04:56:47;99965.28;;;13.47;57.49
15263;BME280;7733;51.554;13.590;2023-05-10T04:59:12;99970.00;;;13.63;57.20
15263;BME280;7733;51.554;13.590;2023-05-10T05:01:39;99983.00;;;13.68;57.35
15263;BME280;7733;51.554;13.590;2023-05-10T05:04:04;99976.44;;;13.80;57.31
15263;BME280;7733;51.554;13.590;2023-05-10T05:06:30;99976.16;;;13.89;57.26
15263;BME280;7733;51.554;13.590;2023-05-10T05:08:56;99974.66;;;13.82;57.78
15263;BME280;7733;51.554;13.590;2023-05-10T05:11:22;99975.41;;;13.85;57.95
15263;BME280;7733;51.554;13.590;2023-05-10T05:13:47;99981.19;;;13.95;57.97
15263;BME280;7733;51.554;13.590;2023-05-10T05:16:13;99979.75;;;14.11;57.34
15263;BME280;7733;51.554;13.590;2023-05-10T05:18:39;99969.38;;;14.07;57.80
15263;BME280;7733;51.554;13.590;2023-05-10T05:21:18;99969.63;;;13.99;57.94
15263;BME280;7733;51.554;13.590;2023-05-10T05:23:45;99973.56;;;14.12;57.90
15263;BME280;7733;51.554;13.590;2023-05-10T05:26:11;99976.38;;;14.32;57.01
15263;BME280;7733;51.554;13.590;2023-05-10T05:28:37;99977.84;;;14.40;56.98
15263;BME280;7733;51.554;13.590;2023-05-10T05:31:07;99975.63;;;14.54;56.16
15263;BME280;7733;51.554;13.590;2023-05-10T05:33:33;99963.69;;;14.67;55.95
15263;BME280;7733;51.554;13.590;2023-05-10T05:36:04;99973.72;;;14.81;55.08
15263;BME280;7733;51.554;13.590;2023-05-10T05:38:30;99974.94;;;14.72;55.51
15263;BME280;7733;51.554;13.590;2023-05-10T05:40:56;99972.97;;;14.77;55.39
15263;BME280;7733;51.554;13.590;2023-05-10T05:43:22;99967.75;;;14.76;55.38
15263;BME280;7733;51.554;13.590;2023-05-10T05:45:48;99969.28;;;14.81;55.23
15263;BME280;7733;51.554;13.590;2023-05-10T05:48:14;99976.06;;;14.88;55.37
15263;BME280;7733;51.554;13.590;2023-05-10T05:50:40;99972.41;;;14.93;54.93
15263;BME280;7733;51.554;13.590;2023-05-10T05:53:06;99962.59;;;15.18;54.04
15263;BME280;7733;51.554;13.590;2023-05-10T05:55:31;99971.69;;;15.11;54.45
15263;BME280;7733;51.554;13.590;2023-05-10T05:57:58;99970.22;;;15.04;54.86
15263;BME280;7733;51.554;13.590;2023-05-10T06:00:24;99976.84;;;15.14;54.45
15263;BME280;7733;51.554;13.590;2023-05-10T06:02:49;99966.22;;;15.59;53.34
15263;BME280;7733;51.554;13.590;2023-05-10T06:05:15;99963.00;;;15.51;53.10
15263;BME280;7733;51.554;13.590;2023-05-10T06:07:41;99958.06;;;15.43;53.90
15263;BME280;7733;51.554;13.590;2023-05-10T06:10:10;99961.22;;;15.73;53.54
15263;BME280;7733;51.554;13.590;2023-05-10T06:12:36;99963.50;;;15.61;53.48
15263;BME280;7733;51.554;13.590;2023-05-10T06:15:03;99964.06;;;15.69;52.80
15263;BME280;7733;51.554;13.590;2023-05-10T06:17:29;99963.81;;;15.95;52.34
15263;BME280;7733;51.554;13.590;2023-05-10T06:19:55;99953.03;;;16.00;52.77
15263;BME280;7733;51.554;13.590;2023-05-10T06:22:21;99959.31;;;15.97;52.88
15263;BME280;7733;51.554;13.590;2023-05-10T06:24:50;99952.66;;;16.09;52.60
15263;BME280;7733;51.554;13.590;2023-05-10T06:27:16;99947.81;;;16.19;52.29
15263;BME280;7733;51.554;13.590;2023-05-10T06:29:41;99956.16;;;16.30;51.98
15263;BME280;7733;51.554;13.590;2023-05-10T06:32:07;99953.69;;;16.46;52.58
15263;BME280;7733;51.554;13.590;2023-05-10T06:34:33;99951.16;;;16.42;52.66
15263;BME280;7733;51.554;13.590;2023-05-10T06:36:58;99952.28;;;16.37;51.89
15263;BME280;7733;51.554;13.590;2023-05-10T06:39:24;99956.28;;;16.27;52.61
15263;BME280;7733;51.554;13.590;2023-05-10T06:41:50;99961.31;;;15.92;53.53
15263;BME280;7733;51.554;13.590;2023-05-10T06:44:16;99952.56;;;16.31;52.25
15263;BME280;7733;51.554;13.590;2023-05-10T06:46:42;99948.03;;;16.53;50.56
15263;BME280;7733;51.554;13.590;2023-05-10T06:49:07;99954.47;;;16.48;50.97
15263;BME280;7733;51.554;13.590;2023-05-10T06:51:33;99948.28;;;16.67;50.61
15263;BME280;7733;51.554;13.590;2023-05-10T06:53:59;99944.19;;;16.98;50.06
15263;BME280;7733;51.554;13.590;2023-05-10T06:56:25;99952.78;;;16.65;50.43
15263;BME280;7733;51.554;13.590;2023-05-10T06:58:51;99951.38;;;16.96;49.51
15263;BME280;7733;51.554;13.590;2023-05-10T07:01:17;99940.59;;;16.99;49.16
15263;BME280;7733;51.554;13.590;2023-05-10T07:03:42;99950.88;;;16.88;49.84
15263;BME280;7733;51.554;13.590;2023-05-10T07:06:08;99952.75;;;16.86;50.21
15263;BME280;7733;51.554;13.590;2023-05-10T07:08:34;99947.53;;;17.20;49.46
15263;BME280;7733;51.554;13.590;2023-05-10T07:11:02;99955.38;;;17.23;50.14
15263;BME280;7733;51.554;13.590;2023-05-10T07:13:32;99955.88;;;17.49;50.25
15263;BME280;7733;51.554;13.590;2023-05-10T07:15:59;99947.19;;;17.28;49.45
15263;BME280;7733;51.554;13.590;2023-05-10T07:18:26;99945.13;;;17.52;48.65
15263;BME280;7733;51.554;13.590;2023-05-10T07:20:52;99944.06;;;17.73;48.49
15263;BME280;7733;51.554;13.590;2023-05-10T07:23:18;99939.22;;;17.64;47.99
15263;BME280;7733;51.554;13.590;2023-05-10T07:25:48;99933.84;;;17.29;48.25
15263;BME280;7733;51.554;13.590;2023-05-10T07:28:15;99929.56;;;17.27;49.28
15263;BME280;7733;51.554;13.590;2023-05-10T07:30:42;99941.06;;;17.45;48.78
15263;BME280;7733;51.554;13.590;2023-05-10T07:33:09;99946.41;;;17.79;48.63
15263;BME280;7733;51.554;13.590;2023-05-10T07:35:36;99945.00;;;17.89;47.90
15263;BME280;7733;51.554;13.590;2023-05-10T07:38:02;99946.56;;;18.11;47.50
15263;BME280;7733;51.554;13.590;2023-05-10T07:40:28;99939.22;;;17.99;47.57
15263;BME280;7733;51.554;13.590;2023-05-10T07:42:55;99947.81;;;18.04;48.18
15263;BME280;7733;51.554;13.590;2023-05-10T07:45:21;99940.97;;;18.33;46.88
15263;BME280;7733;51.554;13.590;2023-05-10T07:47:47;99944.59;;;18.65;46.91
15263;BME280;7733;51.554;13.590;2023-05-10T07:50:12;99947.25;;;18.65;47.30
15263;BME280;7733;51.554;13.590;2023-05-10T07:52:38;99947.50;;;18.76;46.38
15263;BME280;7733;51.554;13.590;2023-05-10T07:55:04;99947.38;;;19.10;46.13
15263;BME280;7733;51.554;13.590;2023-05-10T07:57:30;99946.25;;;19.30;45.72
15263;BME280;7733;51.554;13.590;2023-05-10T07:59:56;99941.88;;;19.13;45.07
15263;BME280;7733;51.554;13.590;2023-05-10T08:02:22;99947.88;;;19.33;46.14
15263;BME280;7733;51.554;13.590;2023-05-10T08:04:48;99931.31;;;19.43;45.13
15263;BME280;7733;51.554;13.590;2023-05-10T08:07:13;99940.53;;;19.52;44.63
15263;BME280;7733;51.554;13.590;2023-05-10T08:09:39;99944.44;;;19.62;44.20
15263;BME280;7733;51.554;13.590;2023-05-10T08:12:05;99948.66;;;19.81;43.40
15263;BME280;7733;51.554;13.590;2023-05-10T08:14:31;99942.47;;;20.24;43.38
15263;BME280;7733;51.554;13.590;2023-05-10T08:16:57;99940.31;;;20.01;43.13
15263;BME280;7733;51.554;13.590;2023-05-10T08:19:23;99944.13;;;19.83;43.29
15263;BME280;7733;51.554;13.590;2023-05-10T08:21:49;99937.16;;;20.24;43.01
15263;BME280;7733;51.554;13.590;2023-05-10T08:24:15;99943.31;;;20.39;42.70
15263;BME280;7733;51.554;13.590;2023-05-10T08:26:40;99941.16;;;20.74;42.71
15263;BME280;7733;51.554;13.590;2023-05-10T08:29:06;99937.59;;;21.02;41.97
15263;BME280;7733;51.554;13.590;2023-05-10T08:31:32;99935.97;;;21.00;41.57
15263;BME280;7733;51.554;13.590;2023-05-10T08:33:58;99943.19;;;21.12;41.86
15263;BME280;7733;51.554;13.590;2023-05-10T08:36:23;99946.97;;;21.22;41.30
15263;BME280;7733;51.554;13.590;2023-05-10T08:38:53;99947.56;;;21.54;41.18
15263;BME280;7733;51.554;13.590;2023-05-10T08:41:20;99948.41;;;21.54;40.55
15263;BME280;7733;51.554;13.590;2023-05-10T08:43:47;99939.25;;;21.59;41.01
15263;BME280;7733;51.554;13.590;2023-05-10T08:46:17;99946.41;;;21.58;40.71
15263;BME280;7733;51.554;13.590;2023-05-10T08:48:48;99958.13;;;21.55;40.37
15263;BME280;7733;51.554;13.590;2023-05-10T08:51:18;99947.50;;;22.08;39.29
15263;BME280;7733;51.554;13.590;2023-05-10T08:53:45;99939.72;;;22.43;39.57
15263;BME280;7733;51.554;13.590;2023-05-10T08:56:11;99951.56;;;22.39;40.54
15263;BME280;7733;51.554;13.590;2023-05-10T08:58:38;99948.78;;;22.53;39.70
15263;BME280;7733;51.554;13.590;2023-05-10T09:01:05;99945.78;;;22.20;39.66
15263;BME280;7733;51.554;13.590;2023-05-10T09:03:31;99949.97;;;22.49;39.21
15263;BME280;7733;51.554;13.590;2023-05-10T09:05:57;99945.41;;;23.00;39.06
15263;BME280;7733;51.554;13.590;2023-05-10T09:08:25;99944.16;;;22.81;38.80
15263;BME280;7733;51.554;13.590;2023-05-10T09:10:52;99956.47;;;22.70;39.28
15263;BME280;7733;51.554;13.590;2023-05-10T09:15:47;99957.50;;;23.43;38.47
15263;BME280;7733;51.554;13.590;2023-05-10T09:18:13;99954.94;;;23.65;38.36
15263;BME280;7733;51.554;13.590;2023-05-10T09:20:39;99951.22;;;23.55;37.62
15263;BME280;7733;51.554;13.590;2023-05-10T09:23:06;99945.47;;;23.72;37.94
15263;BME280;7733;51.554;13.590;2023-05-10T09:25:32;99959.72;;;23.73;38.34
15263;BME280;7733;51.554;13.590;2023-05-10T09:28:00;99963.75;;;23.78;37.89
15263;BME280;7733;51.554;13.590;2023-05-10T09:30:30;99961.56;;;23.72;37.01
15263;BME280;7733;51.554;13.590;2023-05-10T09:32:58;99957.09;;;23.60;37.62
15263;BME280;7733;51.554;13.590;2023-05-10T09:35:30;99957.63;;;23.65;37.40
15263;BME280;7733;51.554;13.590;2023-05-10T09:37:59;99959.50;;;24.22;36.53
15263;BME280;7733;51.554;13.590;2023-05-10T09:40:28;99962.34;;;24.32;36.58
15263;BME280;7733;51.554;13.590;2023-05-10T09:45:28;99954.22;;;24.67;36.08
15263;BME280;7733;51.554;13.590;2023-05-10T09:47:55;99958.88;;;24.65;36.15
15263;BME280;7733;51.554;13.590;2023-05-10T09:50:23;99961.06;;;24.48;35.53
15263;BME280;7733;51.554;13.590;2023-05-10T09:53:01;99955.56;;;24.61;35.70
15263;BME280;7733;51.554;13.590;2023-05-10T09:55:41;99957.84;;;23.62;36.74
15263;BME280;7733;51.554;13.590;2023-05-10T09:58:09;99956.66;;;24.70;36.08
15263;BME280;7733;51.554;13.590;2023-05-10T10:00:46;99961.53;;;24.53;35.83
15263;BME280;7733;51.554;13.590;2023-05-10T10:03:22;99952.03;;;24.83;36.04
15263;BME280;7733;51.554;13.590;2023-05-10T10:05:48;99951.03;;;24.95;35.38
15263;BME280;7733;51.554;13.590;2023-05-10T10:08:15;99948.84;;;25.11;35.08
15263;BME280;7733;51.554;13.590;2023-05-10T10:10:42;99945.56;;;25.08;34.60
15263;BME280;7733;51.554;13.590;2023-05-10T10:13:11;99945.31;;;25.00;35.32
15263;BME280;7733;51.554;13.590;2023-05-10T10:15:37;99933.53;;;25.34;35.22
15263;BME280;7733;51.554;13.590;2023-05-10T10:18:05;99942.75;;;25.53;34.70
15263;BME280;7733;51.554;13.590;2023-05-10T10:20:31;99932.47;;;25.69;34.97
15263;BME280;7733;51.554;13.590;2023-05-10T10:22:57;99937.78;;;25.05;34.73
15263;BME280;7733;51.554;13.590;2023-05-10T10:25:23;99929.66;;;25.59;34.93
15263;BME280;7733;51.554;13.590;2023-05-10T10:30:42;99932.81;;;26.38;34.11
15263;BME280;7733;51.554;13.590;2023-05-10T10:33:38;99926.03;;;25.81;34.59
15263;BME280;7733;51.554;13.590;2023-05-10T10:36:06;99929.47;;;26.04;34.72
15263;BME280;7733;51.554;13.590;2023-05-10T10:41:36;99933.16;;;26.03;33.47
15263;BME280;7733;51.554;13.590;2023-05-10T10:57:48;99931.03;;;26.27;33.81
15263;BME280;7733;51.554;13.590;2023-05-10T11:00:36;99930.97;;;26.18;33.25
15263;BME280;7733;51.554;13.590;2023-05-10T11:03:11;99937.91;;;25.78;34.13
15263;BME280;7733;51.554;13.590;2023-05-10T11:05:57;99924.59;;;26.19;34.07
15263;BME280;7733;51.554;13.590;2023-05-10T11:08:32;99928.75;;;26.44;33.08
15263;BME280;7733;51.554;13.590;2023-05-10T11:13:39;99916.94;;;26.14;33.97
15263;BME280;7733;51.554;13.590;2023-05-10T11:16:23;99922.94;;;26.79;32.91
15263;BME280;7733;51.554;13.590;2023-05-10T11:19:07;99931.41;;;26.74;33.23
15263;BME280;7733;51.554;13.590;2023-05-10T11:21:34;99924.94;;;26.25;33.24
15263;BME280;7733;51.554;13.590;2023-05-10T11:24:15;99924.53;;;26.51;32.39
15263;BME280;7733;51.554;13.590;2023-05-10T11:26:42;99928.78;;;25.70;34.44
15263;BME280;7733;51.554;13.590;2023-05-10T11:29:08;99920.50;;;26.76;33.45
15263;BME280;7733;51.554;13.590;2023-05-10T11:31:35;99922.75;;;26.19;34.16
15263;BME280;7733;51.554;13.590;2023-05-10T11:34:01;99926.38;;;26.29;33.43
15263;BME280;7733;51.554;13.590;2023-05-10T11:36:35;99919.88;;;26.32;34.29
15263;BME280;7733;51.554;13.590;2023-05-10T11:39:02;99925.06;;;25.82;34.24
15263;BME280;7733;51.554;13.590;2023-05-10T11:41:30;99921.78;;;26.20;33.03
15263;BME280;7733;51.554;13.590;2023-05-10T11:43:57;99926.09;;;26.32;33.75
15263;BME280;7733;51.554;13.590;2023-05-10T11:46:26;99920.19;;;27.00;33.33
15263;BME280;7733;51.554;13.590;2023-05-10T11:49:02;99924.97;;;26.96;32.95
15263;BME280;7733;51.554;13.590;2023-05-10T11:51:33;99917.31;;;26.91;33.00
15263;BME280;7733;51.554;13.590;2023-05-10T11:54:05;99926.75;;;27.16;32.89
15263;BME280;7733;51.554;13.590;2023-05-10T11:56:32;99924.81;;;27.28;33.31
15263;BME280;7733;51.554;13.590;2023-05-10T11:58:59;99936.25;;;26.80;31.70
15263;BME280;7733;51.554;13.590;2023-05-10T12:01:28;99932.94;;;25.95;32.60
15263;BME280;7733;51.554;13.590;2023-05-10T12:03:57;99932.81;;;26.17;33.62
15263;BME280;7733;51.554;13.590;2023-05-10T12:06:28;99926.78;;;26.25;33.86
15263;BME280;7733;51.554;13.590;2023-05-10T12:08:54;99930.28;;;27.17;32.80
15263;BME280;7733;51.554;13.590;2023-05-10T12:11:25;99930.22;;;26.97;33.15
15263;BME280;7733;51.554;13.590;2023-05-10T12:13:53;99934.91;;;26.34;33.86
15263;BME280;7733;51.554;13.590;2023-05-10T12:16:25;99945.59;;;25.83;33.84
15263;BME280;7733;51.554;13.590;2023-05-10T12:18:57;99942.38;;;26.52;33.25
15263;BME280;7733;51.554;13.590;2023-05-10T12:21:24;99941.38;;;26.83;32.03
15263;BME280;7733;51.554;13.590;2023-05-10T12:23:59;99941.19;;;26.65;32.36
15263;BME280;7733;51.554;13.590;2023-05-10T12:26:25;99940.13;;;26.57;34.29
15263;BME280;7733;51.554;13.590;2023-05-10T12:28:54;99940.47;;;25.48;33.81
15263;BME280;7733;51.554;13.590;2023-05-10T12:31:20;99947.88;;;25.12;33.57
15263;BME280;7733;51.554;13.590;2023-05-10T12:33:46;99939.69;;;25.89;34.65
15263;BME280;7733;51.554;13.590;2023-05-10T12:36:16;99946.97;;;25.98;34.33
15263;BME280;7733;51.554;13.590;2023-05-10T12:38:46;99957.13;;;26.16;33.25
15263;BME280;7733;51.554;13.590;2023-05-10T12:41:17;99951.50;;;26.40;32.35
15263;BME280;7733;51.554;13.590;2023-05-10T12:43:44;99950.97;;;26.76;32.21
15263;BME280;7733;51.554;13.590;2023-05-10T12:46:13;99945.38;;;26.98;32.17
15263;BME280;7733;51.554;13.590;2023-05-10T12:48:41;99945.47;;;27.08;31.93
15263;BME280;7733;51.554;13.590;2023-05-10T12:51:08;99952.75;;;25.94;32.97
15263;BME280;7733;51.554;13.590;2023-05-10T12:53:35;99954.03;;;25.99;33.29
15263;BME280;7733;51.554;13.590;2023-05-10T12:56:02;99959.81;;;26.88;33.08
15263;BME280;7733;51.554;13.590;2023-05-10T12:58:27;99946.31;;;26.48;33.40
15263;BME280;7733;51.554;13.590;2023-05-10T13:00:53;99951.13;;;26.44;33.68
15263;BME280;7733;51.554;13.590;2023-05-10T13:03:22;99940.97;;;27.38;32.33
15263;BME280;7733;51.554;13.590;2023-05-10T13:05:48;99949.31;;;26.85;32.31
15263;BME280;7733;51.554;13.590;2023-05-10T13:08:14;99945.88;;;27.13;31.72
15263;BME280;7733;51.554;13.590;2023-05-10T13:10:40;99942.91;;;27.16;31.58
15263;BME280;7733;51.554;13.590;2023-05-10T13:13:06;99938.97;;;25.55;33.43
15263;BME280;7733;51.554;13.590;2023-05-10T13:15:33;99945.06;;;26.10;32.57
15263;BME280;7733;51.554;13.590;2023-05-10T13:17:58;99956.94;;;25.87;33.55
15263;BME280;7733;51.554;13.590;2023-05-10T13:20:25;99950.09;;;25.51;35.26
15263;BME280;7733;51.554;13.590;2023-05-10T13:22:51;99948.75;;;26.30;33.59
15263;BME280;7733;51.554;13.590;2023-05-10T13:25:17;99936.28;;;26.08;33.17
15263;BME280;7733;51.554;13.590;2023-05-10T13:27:42;99940.03;;;24.98;41.52
15263;BME280;7733;51.554;13.590;2023-05-10T13:30:09;99943.00;;;24.84;43.12
15263;BME280;7733;51.554;13.590;2023-05-10T13:32:35;99953.97;;;24.47;44.76
15263;BME280;7733;51.554;13.590;2023-05-10T13:35:02;99954.63;;;24.16;45.71
15263;BME280;7733;51.554;13.590;2023-05-10T13:37:29;99955.66;;;23.91;47.74
15263;BME280;7733;51.554;13.590;2023-05-10T13:39:55;99951.16;;;24.38;46.81
15263;BME280;7733;51.554;13.590;2023-05-10T13:42:23;99962.91;;;23.78;48.48
15263;BME280;7733;51.554;13.590;2023-05-10T13:44:52;99957.50;;;24.93;44.42
15263;BME280;7733;51.554;13.590;2023-05-10T13:47:18;99967.41;;;24.12;47.09
15263;BME280;7733;51.554;13.590;2023-05-10T13:49:44;99966.91;;;23.72;49.34